sensor_id;sensor_type;location;lat;lon;timestamp;temperature;humidity
13856;DHT22;6998;53.608;9.958;2023-04-25T00:00:48;8.80;99.90
13856;DHT22;6998;53.608;9.958;2023-04-25T00:03:15;8.80;99.90
13856;DHT22;6998;53.608;9.958;2023-04-25T00:05:43;8.80;99.90
13856;DHT22;6998;53.608;9.958;2023-04-25T00:08:12;8.70;99.90
13856;DHT22;6998;53.608;9.958;2023-04-25T00:10:39;8.80;99.90
13856;DHT22;6998;53.608;9.958;2023-04-25T00:13:06;8.70;99.90
13856;DHT22;6998;53.608;9.958;2023-04-25T00:15:33;8.60;99.90
13856;DHT22;6998;53.608;9.958;2023-04-25T00:18:03;8.60;99.90
13856;DHT22;6998;53.608;9.958;2023-04-25T00:20:32;8.60;99.90
13856;DHT22;6998;53.608;9.958;2023-04-25T00:23:00;8.50;99.90
13856;DHT22;6998;53.608;9.958;2023-04-25T00:25:28;8.60;99.90
13856;DHT22;6998;53.608;9.958;2023-04-25T00:27:55;8.50;99.90
13856;DHT22;6998;53.608;9.958;2023-04-25T00:30:22;8.50;99.90
13856;DHT22;6998;53.608;9.958;2023-04-25T00:32:49;8.50;99.90
13856;DHT22;6998;53.608;9.958;2023-04-25T00:35:17;8.50;99.90
13856;DHT22;6998;53.608;9.958;2023-04-25T00:37:45;8.50;99.90
13856;DHT22;6998;53.608;9.958;2023-04-25T00:40:16;8.40;99.90
13856;DHT22;6998;53.608;9.958;2023-04-25T00:42:55;8.40;99.90
13856;DHT22;6998;53.608;9.958;2023-04-25T00:45:26;8.40;99.90
13856;DHT22;6998;53.608;9.958;2023-04-25T00:50:59;8.30;99.90
13856;DHT22;6998;53.608;9.958;2023-04-25T00:53:49;8.30;99.90
13856;DHT22;6998;53.608;9.958;2023-04-25T00:56:21;8.20;99.90
13856;DHT22;6998;53.608;9.958;2023-04-25T00:58:55;8.20;99.90
13856;DHT22;6998;53.608;9.958;2023-04-25T01:01:33;8.20;99.90
13856;DHT22;6998;53.608;9.958;2023-04-25T01:04:04;8.10;99.90
13856;DHT22;6998;53.608;9.958;2023-04-25T01:06:33;8.10;99.90
13856;DHT22;6998;53.608;9.958;2023-04-25T01:09:02;8.10;99.90
13856;DHT22;6998;53.608;9.958;2023-04-25T01:11:51;8.10;99.90
13856;DHT22;6998;53.608;9.958;2023-04-25T01:15:20;8.10;99.90
13856;DHT22;6998;53.608;9.958;2023-04-25T01:18:00;8.00;99.90
13856;DHT22;6998;53.608;9.958;2023-04-25T01:21:07;8.00;99.90
13856;DHT22;6998;53.608;9.958;2023-04-25T01:23:36;8.00;99.90
13856;DHT22;6998;53.608;9.958;2023-04-25T01:30:20;7.90;99.90
13856;DHT22;6998;53.608;9.958;2023-04-25T01:32:47;7.90;99.90
13856;DHT22;6998;53.608;9.958;2023-04-25T01:35:14;7.90;99.90
13856;DHT22;6998;53.608;9.958;2023-04-25T01:37:42;7.80;99.90
13856;DHT22;6998;53.608;9.958;2023-04-25T01:40:10;7.70;99.90
13856;DHT22;6998;53.608;9.958;2023-04-25T01:42:42;7.70;99.90
13856;DHT22;6998;53.608;9.958;2023-04-25T01:45:10;7.70;99.90
13856;DHT22;6998;53.608;9.958;2023-04-25T01:47:39;7.70;99.90
13856;DHT22;6998;53.608;9.958;2023-04-25T01:50:09;7.70;99.90
13856;DHT22;6998;53.608;9.958;2023-04-25T01:52:36;7.70;99.90
13856;DHT22;6998;53.608;9.958;2023-04-25T01:55:03;7.70;99.90
13856;DHT22;6998;53.608;9.958;2023-04-25T01:57:30;7.60;99.90
13856;DHT22;6998;53.608;9.958;2023-04-25T02:00:00;7.60;99.90
13856;DHT22;6998;53.608;9.958;2023-04-25T02:02:28;7.60;99.90
13856;DHT22;6998;53.608;9.958;2023-04-25T02:04:56;7.60;99.90
13856;DHT22;6998;53.608;9.958;2023-04-25T02:07:23;7.60;99.90
13856;DHT22;6998;53.608;9.958;2023-04-25T02:09:49;7.60;99.90
13856;DHT22;6998;53.608;9.958;2023-04-25T02:12:16;7.50;99.90
13856;DHT22;6998;53.608;9.958;2023-04-25T02:14:43;7.60;99.90
13856;DHT22;6998;53.608;9.958;2023-04-25T02:17:10;7.50;99.90
13856;DHT22;6998;53.608;9.958;2023-04-25T02:19:37;7.60;99.90
13856;DHT22;6998;53.608;9.958;2023-04-25T02:22:06;7.70;99.90
13856;DHT22;6998;53.608;9.958;2023-04-25T02:24:32;7.60;99.90
13856;DHT22;6998;53.608;9.958;2023-04-25T02:27:00;7.60;99.90
13856;DHT22;6998;53.608;9.958;2023-04-25T02:29:26;7.60;99.90
13856;DHT22;6998;53.608;9.958;2023-04-25T02:31:53;7.50;99.90
13856;DHT22;6998;53.608;9.958;2023-04-25T02:34:20;7.40;99.90
13856;DHT22;6998;53.608;9.958;2023-04-25T02:36:48;7.40;99.90
13856;DHT22;6998;53.608;9.958;2023-04-25T02:39:16;7.40;99.90
13856;DHT22;6998;53.608;9.958;2023-04-25T02:41:43;7.50;99.90
13856;DHT22;6998;53.608;9.958;2023-04-25T02:44:10;7.50;99.90
13856;DHT22;6998;53.608;9.958;2023-04-25T02:46:36;7.50;99.90
13856;DHT22;6998;53.608;9.958;2023-04-25T02:49:03;7.60;99.90
13856;DHT22;6998;53.608;9.958;2023-04-25T02:51:30;7.60;99.90
13856;DHT22;6998;53.608;9.958;2023-04-25T02:53:58;7.60;99.90
13856;DHT22;6998;53.608;9.958;2023-04-25T02:56:26;7.50;99.90
13856;DHT22;6998;53.608;9.958;2023-04-25T02:58:52;7.50;99.90
13856;DHT22;6998;53.608;9.958;2023-04-25T03:01:19;7.40;99.90
13856;DHT22;6998;53.608;9.958;2023-04-25T03:03:46;7.40;99.90
13856;DHT22;6998;53.608;9.958;2023-04-25T03:06:13;7.30;99.90
13856;DHT22;6998;53.608;9.958;2023-04-25T03:08:40;7.30;99.90
13856;DHT22;6998;53.608;9.958;2023-04-25T03:11:06;7.10;99.90
13856;DHT22;6998;53.608;9.958;2023-04-25T03:13:34;7.10;99.90
13856;DHT22;6998;53.608;9.958;2023-04-25T03:16:01;7.10;99.90
13856;DHT22;6998;53.608;9.958;2023-04-25T03:18:28;7.00;99.90
13856;DHT22;6998;53.608;9.958;2023-04-25T03:20:55;7.00;99.90
13856;DHT22;6998;53.608;9.958;2023-04-25T03:23:21;6.90;99.90
13856;DHT22;6998;53.608;9.958;2023-04-25T03:25:48;6.80;99.90
13856;DHT22;6998;53.608;9.958;2023-04-25T03:28:15;6.80;99.90
13856;DHT22;6998;53.608;9.958;2023-04-25T03:30:43;6.70;99.90
13856;DHT22;6998;53.608;9.958;2023-04-25T03:33:10;6.60;99.90
13856;DHT22;6998;53.608;9.958;2023-04-25T03:35:36;6.50;99.90
13856;DHT22;6998;53.608;9.958;2023-04-25T03:38:03;6.50;99.90
13856;DHT22;6998;53.608;9.958;2023-04-25T03:40:30;6.50;99.90
13856;DHT22;6998;53.608;9.958;2023-04-25T03:42:57;6.40;99.90
13856;DHT22;6998;53.608;9.958;2023-04-25T03:45:24;6.30;99.90
13856;DHT22;6998;53.608;9.958;2023-04-25T03:47:52;6.30;99.90
13856;DHT22;6998;53.608;9.958;2023-04-25T03:50:19;6.30;99.90
13856;DHT22;6998;53.608;9.958;2023-04-25T03:52:45;6.40;99.90
13856;DHT22;6998;53.608;9.958;2023-04-25T03:55:12;6.40;99.90
13856;DHT22;6998;53.608;9.958;2023-04-25T03:57:39;6.40;99.90
13856;DHT22;6998;53.608;9.958;2023-04-25T04:00:07;6.40;99.90
13856;DHT22;6998;53.608;9.958;2023-04-25T04:02:35;6.40;99.90
13856;DHT22;6998;53.608;9.958;2023-04-25T04:05:06;6.40;99.90
13856;DHT22;6998;53.608;9.958;2023-04-25T04:07:32;6.40;99.90
13856;DHT22;6998;53.608;9.958;2023-04-25T04:10:05;6.40;99.90
13856;DHT22;6998;53.608;9.958;2023-04-25T04:12:32;6.30;99.90
13856;DHT22;6998;53.608;9.958;2023-04-25T04:15:01;6.20;99.90
13856;DHT22;6998;53.608;9.958;2023-04-25T04:17:29;6.10;99.90
13856;DHT22;6998;53.608;9.958;2023-04-25T04:19:56;6.00;99.90
13856;DHT22;6998;53.608;9.958;2023-04-25T04:22:24;5.90;99.90
13856;DHT22;6998;53.608;9.958;2023-04-25T04:24:51;5.90;99.90
13856;DHT22;6998;53.608;9.958;2023-04-25T04:27:19;5.90;99.90
13856;DHT22;6998;53.608;9.958;2023-04-25T04:29:46;5.90;99.90
13856;DHT22;6998;53.608;9.958;2023-04-25T04:32:14;6.00;99.90
13856;DHT22;6998;53.608;9.958;2023-04-25T04:34:41;6.00;99.90
13856;DHT22;6998;53.608;9.958;2023-04-25T04:37:08;6.10;99.90
13856;DHT22;6998;53.608;9.958;2023-04-25T04:39:36;6.10;99.90
13856;DHT22;6998;53.608;9.958;2023-04-25T04:42:03;6.10;99.90
13856;DHT22;6998;53.608;9.958;2023-04-25T04:44:33;6.20;99.90
13856;DHT22;6998;53.608;9.958;2023-04-25T04:47:00;6.30;99.90
13856;DHT22;6998;53.608;9.958;2023-04-25T04:49:29;6.30;99.90
13856;DHT22;6998;53.608;9.958;2023-04-25T04:51:55;6.40;99.90
13856;DHT22;6998;53.608;9.958;2023-04-25T04:54:22;6.40;99.90
13856;DHT22;6998;53.608;9.958;2023-04-25T04:56:51;6.50;99.90
13856;DHT22;6998;53.608;9.958;2023-04-25T04:59:18;6.50;99.90
13856;DHT22;6998;53.608;9.958;2023-04-25T05:01:45;6.50;99.90
13856;DHT22;6998;53.608;9.958;2023-04-25T05:04:12;6.60;99.90
13856;DHT22;6998;53.608;9.958;2023-04-25T05:06:39;6.60;99.90
13856;DHT22;6998;53.608;9.958;2023-04-25T05:09:05;6.70;99.90
13856;DHT22;6998;53.608;9.958;2023-04-25T05:11:32;6.80;99.90
13856;DHT22;6998;53.608;9.958;2023-04-25T05:14:00;6.70;99.90
13856;DHT22;6998;53.608;9.958;2023-04-25T05:16:27;6.70;99.90
13856;DHT22;6998;53.608;9.958;2023-04-25T05:18:54;6.70;99.90
13856;DHT22;6998;53.608;9.958;2023-04-25T05:21:21;6.60;99.90
13856;DHT22;6998;53.608;9.958;2023-04-25T05:23:48;6.70;99.90
13856;DHT22;6998;53.608;9.958;2023-04-25T05:26:15;6.60;99.90
13856;DHT22;6998;53.608;9.958;2023-04-25T05:28:41;6.60;99.90
13856;DHT22;6998;53.608;9.958;2023-04-25T05:31:10;6.60;99.90
13856;DHT22;6998;53.608;9.958;2023-04-25T05:33:37;6.70;99.90
13856;DHT22;6998;53.608;9.958;2023-04-25T05:36:05;6.80;99.90
13856;DHT22;6998;53.608;9.958;2023-04-25T05:38:31;6.90;99.90
13856;DHT22;6998;53.608;9.958;2023-04-25T05:40:58;6.90;99.90
13856;DHT22;6998;53.608;9.958;2023-04-25T05:43:25;6.80;99.90
13856;DHT22;6998;53.608;9.958;2023-04-25T05:45:52;6.90;99.90
13856;DHT22;6998;53.608;9.958;2023-04-25T05:48:20;7.00;99.90
13856;DHT22;6998;53.608;9.958;2023-04-25T05:50:46;7.00;99.90
13856;DHT22;6998;53.608;9.958;2023-04-25T05:53:13;7.20;99.90
13856;DHT22;6998;53.608;9.958;2023-04-25T05:55:40;7.20;99.90
13856;DHT22;6998;53.608;9.958;2023-04-25T05:58:07;7.30;99.90
13856;DHT22;6998;53.608;9.958;2023-04-25T06:00:33;7.40;99.90
13856;DHT22;6998;53.608;9.958;2023-04-25T06:03:00;7.50;99.90
13856;DHT22;6998;53.608;9.958;2023-04-25T06:05:29;7.50;99.90
13856;DHT22;6998;53.608;9.958;2023-04-25T06:07:55;7.60;99.90
13856;DHT22;6998;53.608;9.958;2023-04-25T06:10:22;7.60;99.90
13856;DHT22;6998;53.608;9.958;2023-04-25T06:12:49;7.70;99.90
13856;DHT22;6998;53.608;9.958;2023-04-25T06:15:16;7.60;99.90
13856;DHT22;6998;53.608;9.958;2023-04-25T06:17:43;7.80;99.90
13856;DHT22;6998;53.608;9.958;2023-04-25T06:20:10;7.90;99.90
13856;DHT22;6998;53.608;9.958;2023-04-25T06:22:38;7.90;99.90
13856;DHT22;6998;53.608;9.958;2023-04-25T06:25:07;7.90;99.90
13856;DHT22;6998;53.608;9.958;2023-04-25T06:27:34;8.00;99.90
13856;DHT22;6998;53.608;9.958;2023-04-25T06:30:01;7.90;99.90
13856;DHT22;6998;53.608;9.958;2023-04-25T06:32:28;7.90;99.90
13856;DHT22;6998;53.608;9.958;2023-04-25T06:34:55;7.80;99.90
13856;DHT22;6998;53.608;9.958;2023-04-25T06:37:23;7.90;99.90
13856;DHT22;6998;53.608;9.958;2023-04-25T06:39:52;7.90;99.90
13856;DHT22;6998;53.608;9.958;2023-04-25T06:42:18;7.90;99.90
13856;DHT22;6998;53.608;9.958;2023-04-25T06:44:45;7.90;99.90
13856;DHT22;6998;53.608;9.958;2023-04-25T06:47:12;7.90;99.90
13856;DHT22;6998;53.608;9.958;2023-04-25T06:49:39;7.90;99.90
13856;DHT22;6998;53.608;9.958;2023-04-25T06:52:05;8.10;99.90
13856;DHT22;6998;53.608;9.958;2023-04-25T06:54:32;8.10;99.90
13856;DHT22;6998;53.608;9.958;2023-04-25T06:57:01;8.20;99.90
13856;DHT22;6998;53.608;9.958;2023-04-25T06:59:29;8.30;99.90
13856;DHT22;6998;53.608;9.958;2023-04-25T07:01:56;8.40;99.90
13856;DHT22;6998;53.608;9.958;2023-04-25T07:04:23;8.40;99.90
13856;DHT22;6998;53.608;9.958;2023-04-25T07:06:50;8.40;99.90
13856;DHT22;6998;53.608;9.958;2023-04-25T07:09:17;8.40;99.90
13856;DHT22;6998;53.608;9.958;2023-04-25T07:11:43;8.40;99.90
13856;DHT22;6998;53.608;9.958;2023-04-25T07:14:11;8.50;99.90
13856;DHT22;6998;53.608;9.958;2023-04-25T07:16:38;8.50;99.90
13856;DHT22;6998;53.608;9.958;2023-04-25T07:19:05;8.60;99.90
13856;DHT22;6998;53.608;9.958;2023-04-25T07:21:32;8.50;99.90
13856;DHT22;6998;53.608;9.958;2023-04-25T07:23:59;8.40;99.90
13856;DHT22;6998;53.608;9.958;2023-04-25T07:26:26;8.40;99.90
13856;DHT22;6998;53.608;9.958;2023-04-25T07:28:52;8.30;99.90
13856;DHT22;6998;53.608;9.958;2023-04-25T07:31:21;8.20;99.90
13856;DHT22;6998;53.608;9.958;2023-04-25T07:33:49;8.20;99.90
13856;DHT22;6998;53.608;9.958;2023-04-25T07:36:15;8.20;99.90
13856;DHT22;6998;53.608;9.958;2023-04-25T07:38:42;8.30;99.90
13856;DHT22;6998;53.608;9.958;2023-04-25T07:41:09;8.40;99.90
13856;DHT22;6998;53.608;9.958;2023-04-25T07:43:36;8.50;99.90
13856;DHT22;6998;53.608;9.958;2023-04-25T07:46:02;8.70;99.90
13856;DHT22;6998;53.608;9.958;2023-04-25T07:48:31;8.80;99.90
13856;DHT22;6998;53.608;9.958;2023-04-25T07:50:57;8.80;99.90
13856;DHT22;6998;53.608;9.958;2023-04-25T07:53:24;8.90;99.90
13856;DHT22;6998;53.608;9.958;2023-04-25T07:55:51;9.10;99.90
13856;DHT22;6998;53.608;9.958;2023-04-25T07:58:18;9.30;99.90
13856;DHT22;6998;53.608;9.958;2023-04-25T08:00:47;9.40;99.90
13856;DHT22;6998;53.608;9.958;2023-04-25T08:03:13;9.50;99.90
13856;DHT22;6998;53.608;9.958;2023-04-25T08:05:42;9.50;99.90
13856;DHT22;6998;53.608;9.958;2023-04-25T08:08:08;9.50;99.90
13856;DHT22;6998;53.608;9.958;2023-04-25T08:10:35;9.30;99.90
13856;DHT22;6998;53.608;9.958;2023-04-25T08:13:02;9.20;99.90
13856;DHT22;6998;53.608;9.958;2023-04-25T08:15:29;9.20;99.90
13856;DHT22;6998;53.608;9.958;2023-04-25T08:17:56;9.20;99.90
13856;DHT22;6998;53.608;9.958;2023-04-25T08:20:22;9.10;99.90
13856;DHT22;6998;53.608;9.958;2023-04-25T08:22:51;9.00;99.90
13856;DHT22;6998;53.608;9.958;2023-04-25T08:25:18;8.80;99.90
13856;DHT22;6998;53.608;9.958;2023-04-25T08:27:45;8.80;99.90
13856;DHT22;6998;53.608;9.958;2023-04-25T08:30:12;8.80;99.90
13856;DHT22;6998;53.608;9.958;2023-04-25T08:32:39;8.90;99.90
13856;DHT22;6998;53.608;9.958;2023-04-25T08:35:07;9.10;99.90
13856;DHT22;6998;53.608;9.958;2023-04-25T08:37:33;9.20;99.90
13856;DHT22;6998;53.608;9.958;2023-04-25T08:40:04;9.20;99.90
13856;DHT22;6998;53.608;9.958;2023-04-25T08:42:33;9.10;99.90
13856;DHT22;6998;53.608;9.958;2023-04-25T08:45:01;8.90;99.90
13856;DHT22;6998;53.608;9.958;2023-04-25T08:47:30;8.80;99.90
13856;DHT22;6998;53.608;9.958;2023-04-25T08:50:00;8.70;99.90
13856;DHT22;6998;53.608;9.958;2023-04-25T08:52:32;8.80;99.90
13856;DHT22;6998;53.608;9.958;2023-04-25T08:55:03;8.90;99.90
13856;DHT22;6998;53.608;9.958;2023-04-25T08:57:31;9.20;99.90
13856;DHT22;6998;53.608;9.958;2023-04-25T09:00:00;9.50;99.90
13856;DHT22;6998;53.608;9.958;2023-04-25T09:02:28;9.90;99.90
13856;DHT22;6998;53.608;9.958;2023-04-25T09:04:56;10.20;99.90
13856;DHT22;6998;53.608;9.958;2023-04-25T09:07:23;10.20;99.90
13856;DHT22;6998;53.608;9.958;2023-04-25T09:09:51;9.90;99.90
13856;DHT22;6998;53.608;9.958;2023-04-25T09:12:19;9.50;99.90
13856;DHT22;6998;53.608;9.958;2023-04-25T09:15:06;9.30;99.90
13856;DHT22;6998;53.608;9.958;2023-04-25T09:17:33;9.20;99.90
13856;DHT22;6998;53.608;9.958;2023-04-25T09:20:07;9.50;99.90
13856;DHT22;6998;53.608;9.958;2023-04-25T09:22:35;9.60;99.90
13856;DHT22;6998;53.608;9.958;2023-04-25T09:25:03;9.60;99.90
13856;DHT22;6998;53.608;9.958;2023-04-25T09:27:33;9.70;99.90
13856;DHT22;6998;53.608;9.958;2023-04-25T09:30:00;9.90;99.90
13856;DHT22;6998;53.608;9.958;2023-04-25T09:32:27;10.20;99.90
13856;DHT22;6998;53.608;9.958;2023-04-25T09:34:55;10.20;99.90
13856;DHT22;6998;53.608;9.958;2023-04-25T09:37:24;10.00;99.90
13856;DHT22;6998;53.608;9.958;2023-04-25T09:39:53;9.30;99.90
13856;DHT22;6998;53.608;9.958;2023-04-25T09:42:22;8.90;99.90
13856;DHT22;6998;53.608;9.958;2023-04-25T09:44:52;8.40;99.90
13856;DHT22;6998;53.608;9.958;2023-04-25T09:47:20;8.10;99.90
13856;DHT22;6998;53.608;9.958;2023-04-25T09:49:49;8.30;99.90
13856;DHT22;6998;53.608;9.958;2023-04-25T09:52:17;8.40;99.90
13856;DHT22;6998;53.608;9.958;2023-04-25T09:54:46;8.60;99.90
13856;DHT22;6998;53.608;9.958;2023-04-25T09:57:14;8.80;99.90
13856;DHT22;6998;53.608;9.958;2023-04-25T09:59:45;9.00;99.90
13856;DHT22;6998;53.608;9.958;2023-04-25T10:02:16;9.30;99.90
13856;DHT22;6998;53.608;9.958;2023-04-25T10:04:47;9.50;99.90
13856;DHT22;6998;53.608;9.958;2023-04-25T10:07:14;9.60;99.90
13856;DHT22;6998;53.608;9.958;2023-04-25T10:09:41;9.60;99.90
13856;DHT22;6998;53.608;9.958;2023-04-25T10:12:11;9.60;99.90
13856;DHT22;6998;53.608;9.958;2023-04-25T10:14:38;9.90;99.90
13856;DHT22;6998;53.608;9.958;2023-04-25T10:17:06;10.10;99.90
13856;DHT22;6998;53.608;9.958;2023-04-25T10:19:35;10.10;99.90
13856;DHT22;6998;53.608;9.958;2023-04-25T10:22:08;10.20;99.90
13856;DHT22;6998;53.608;9.958;2023-04-25T10:24:35;10.00;99.90
13856;DHT22;6998;53.608;9.958;2023-04-25T10:27:02;9.90;99.90
13856;DHT22;6998;53.608;9.958;2023-04-25T10:29:30;10.00;99.90
13856;DHT22;6998;53.608;9.958;2023-04-25T10:31:57;10.00;99.90
13856;DHT22;6998;53.608;9.958;2023-04-25T10:34:25;10.10;99.90
13856;DHT22;6998;53.608;9.958;2023-04-25T10:37:05;10.40;99.90
13856;DHT22;6998;53.608;9.958;2023-04-25T10:39:34;10.50;99.90
13856;DHT22;6998;53.608;9.958;2023-04-25T10:42:02;10.40;99.90
13856;DHT22;6998;53.608;9.958;2023-04-25T10:44:30;10.30;99.90
13856;DHT22;6998;53.608;9.958;2023-04-25T10:46:57;10.40;99.90
13856;DHT22;6998;53.608;9.958;2023-04-25T10:49:32;10.70;99.90
13856;DHT22;6998;53.608;9.958;2023-04-25T10:52:17;11.20;99.90
13856;DHT22;6998;53.608;9.958;2023-04-25T10:54:48;11.60;99.90
13856;DHT22;6998;53.608;9.958;2023-04-25T10:57:30;11.50;99.90
13856;DHT22;6998;53.608;9.958;2023-04-25T11:00:15;11.00;99.90
13856;DHT22;6998;53.608;9.958;2023-04-25T11:02:44;10.70;99.90
13856;DHT22;6998;53.608;9.958;2023-04-25T11:05:19;10.90;99.90
13856;DHT22;6998;53.608;9.958;2023-04-25T11:07:50;11.40;99.90
13856;DHT22;6998;53.608;9.958;2023-04-25T11:10:17;11.70;99.90
13856;DHT22;6998;53.608;9.958;2023-04-25T11:12:45;11.60;99.90
13856;DHT22;6998;53.608;9.958;2023-04-25T11:15:12;11.30;99.90
13856;DHT22;6998;53.608;9.958;2023-04-25T11:17:39;10.80;99.90
13856;DHT22;6998;53.608;9.958;2023-04-25T11:20:07;10.30;99.90
13856;DHT22;6998;53.608;9.958;2023-04-25T11:22:38;10.10;99.90
13856;DHT22;6998;53.608;9.958;2023-04-25T11:25:10;10.10;99.90
13856;DHT22;6998;53.608;9.958;2023-04-25T11:27:49;10.20;99.90
13856;DHT22;6998;53.608;9.958;2023-04-25T11:30:16;10.10;99.90
13856;DHT22;6998;53.608;9.958;2023-04-25T11:32:43;10.10;99.90
13856;DHT22;6998;53.608;9.958;2023-04-25T11:35:11;10.10;99.90
13856;DHT22;6998;53.608;9.958;2023-04-25T11:37:39;10.00;99.90
13856;DHT22;6998;53.608;9.958;2023-04-25T11:40:08;10.00;99.90
13856;DHT22;6998;53.608;9.958;2023-04-25T11:42:37;10.30;99.90
13856;DHT22;6998;53.608;9.958;2023-04-25T11:45:06;10.50;99.90
13856;DHT22;6998;53.608;9.958;2023-04-25T11:47:33;11.00;99.90
13856;DHT22;6998;53.608;9.958;2023-04-25T11:50:01;11.50;99.90
13856;DHT22;6998;53.608;9.958;2023-04-25T11:52:38;11.90;99.90
13856;DHT22;6998;53.608;9.958;2023-04-25T11:55:09;12.10;99.90
13856;DHT22;6998;53.608;9.958;2023-04-25T11:57:37;12.30;99.90
13856;DHT22;6998;53.608;9.958;2023-04-25T12:00:11;12.30;99.90
13856;DHT22;6998;53.608;9.958;2023-04-25T12:02:41;12.20;99.90
13856;DHT22;6998;53.608;9.958;2023-04-25T12:05:09;12.20;99.90
13856;DHT22;6998;53.608;9.958;2023-04-25T12:07:36;12.10;99.90
13856;DHT22;6998;53.608;9.958;2023-04-25T12:10:09;11.60;99.90
13856;DHT22;6998;53.608;9.958;2023-04-25T12:12:37;11.40;99.90
13856;DHT22;6998;53.608;9.958;2023-04-25T12:15:12;11.30;99.90
13856;DHT22;6998;53.608;9.958;2023-04-25T12:17:41;11.30;99.90
13856;DHT22;6998;53.608;9.958;2023-04-25T12:20:10;11.30;99.90
13856;DHT22;6998;53.608;9.958;2023-04-25T12:22:37;11.10;99.90
13856;DHT22;6998;53.608;9.958;2023-04-25T12:25:04;11.20;99.90
13856;DHT22;6998;53.608;9.958;2023-04-25T12:27:35;11.40;99.90
13856;DHT22;6998;53.608;9.958;2023-04-25T12:30:03;11.30;99.90
13856;DHT22;6998;53.608;9.958;2023-04-25T12:32:30;11.40;99.90
13856;DHT22;6998;53.608;9.958;2023-04-25T12:34:57;11.50;99.90
13856;DHT22;6998;53.608;9.958;2023-04-25T12:37:24;11.40;99.90
13856;DHT22;6998;53.608;9.958;2023-04-25T12:39:51;11.70;99.90
13856;DHT22;6998;53.608;9.958;2023-04-25T12:42:17;12.20;99.90
13856;DHT22;6998;53.608;9.958;2023-04-25T12:44:45;12.60;99.90
13856;DHT22;6998;53.608;9.958;2023-04-25T12:47:12;12.60;99.90
13856;DHT22;6998;53.608;9.958;2023-04-25T12:49:40;12.50;99.90
13856;DHT22;6998;53.608;9.958;2023-04-25T12:52:07;11.90;99.90
13856;DHT22;6998;53.608;9.958;2023-04-25T12:54:33;11.50;99.90
13856;DHT22;6998;53.608;9.958;2023-04-25T12:57:00;11.20;99.90
13856;DHT22;6998;53.608;9.958;2023-04-25T12:59:28;10.80;99.90
13856;DHT22;6998;53.608;9.958;2023-04-25T13:01:56;10.90;99.90
13856;DHT22;6998;53.608;9.958;2023-04-25T13:04:23;11.10;99.90
13856;DHT22;6998;53.608;9.958;2023-04-25T13:06:50;11.50;99.90
13856;DHT22;6998;53.608;9.958;2023-04-25T13:09:17;11.70;99.90
13856;DHT22;6998;53.608;9.958;2023-04-25T13:11:43;11.50;99.90
13856;DHT22;6998;53.608;9.958;2023-04-25T13:14:11;11.60;99.90
13856;DHT22;6998;53.608;9.958;2023-04-25T13:16:38;11.50;99.90
13856;DHT22;6998;53.608;9.958;2023-04-25T13:19:06;10.60;99.90
13856;DHT22;6998;53.608;9.958;2023-04-25T13:21:36;10.00;99.90
13856;DHT22;6998;53.608;9.958;2023-04-25T13:24:03;9.90;99.90
13856;DHT22;6998;53.608;9.958;2023-04-25T13:26:30;9.70;99.90
13856;DHT22;6998;53.608;9.958;2023-04-25T13:28:57;9.50;99.90
13856;DHT22;6998;53.608;9.958;2023-04-25T13:31:25;9.40;99.90
13856;DHT22;6998;53.608;9.958;2023-04-25T13:33:52;9.40;99.90
13856;DHT22;6998;53.608;9.958;2023-04-25T13:36:20;9.70;99.90
13856;DHT22;6998;53.608;9.958;2023-04-25T13:38:47;10.10;99.90
13856;DHT22;6998;53.608;9.958;2023-04-25T13:41:14;10.50;99.90
13856;DHT22;6998;53.608;9.958;2023-04-25T13:43:44;10.70;99.90
13856;DHT22;6998;53.608;9.958;2023-04-25T13:46:12;10.50;99.90
13856;DHT22;6998;53.608;9.958;2023-04-25T13:48:41;10.00;99.90
13856;DHT22;6998;53.608;9.958;2023-04-25T13:51:13;9.50;99.90
13856;DHT22;6998;53.608;9.958;2023-04-25T13:53:41;9.30;99.90
13856;DHT22;6998;53.608;9.958;2023-04-25T13:56:08;9.00;99.90
13856;DHT22;6998;53.608;9.958;2023-04-25T13:58:36;8.90;99.90
13856;DHT22;6998;53.608;9.958;2023-04-25T14:01:03;9.00;99.90
13856;DHT22;6998;53.608;9.958;2023-04-25T14:03:30;9.00;99.90
13856;DHT22;6998;53.608;9.958;2023-04-25T14:05:57;9.20;99.90
13856;DHT22;6998;53.608;9.958;2023-04-25T14:08:24;9.40;99.90
13856;DHT22;6998;53.608;9.958;2023-04-25T14:10:52;9.60;99.90
13856;DHT22;6998;53.608;9.958;2023-04-25T14:13:19;9.80;99.90
13856;DHT22;6998;53.608;9.958;2023-04-25T14:15:46;10.00;99.90
13856;DHT22;6998;53.608;9.958;2023-04-25T14:18:15;10.40;99.90
13856;DHT22;6998;53.608;9.958;2023-04-25T14:20:41;10.80;99.90
13856;DHT22;6998;53.608;9.958;2023-04-25T14:23:08;11.20;99.90
13856;DHT22;6998;53.608;9.958;2023-04-25T14:25:35;11.50;99.90
13856;DHT22;6998;53.608;9.958;2023-04-25T14:28:06;11.60;99.90
13856;DHT22;6998;53.608;9.958;2023-04-25T14:30:33;11.50;99.90
13856;DHT22;6998;53.608;9.958;2023-04-25T14:33:00;11.70;99.90
13856;DHT22;6998;53.608;9.958;2023-04-25T14:35:27;12.00;99.90
13856;DHT22;6998;53.608;9.958;2023-04-25T14:37:54;12.20;99.90
13856;DHT22;6998;53.608;9.958;2023-04-25T14:40:20;12.20;99.90
13856;DHT22;6998;53.608;9.958;2023-04-25T14:42:48;12.20;99.90
13856;DHT22;6998;53.608;9.958;2023-04-25T14:45:16;12.10;99.90
13856;DHT22;6998;53.608;9.958;2023-04-25T14:47:43;12.20;99.90
13856;DHT22;6998;53.608;9.958;2023-04-25T14:50:10;12.00;99.90
13856;DHT22;6998;53.608;9.958;2023-04-25T14:52:37;11.80;99.90
13856;DHT22;6998;53.608;9.958;2023-04-25T14:55:04;11.50;99.90
13856;DHT22;6998;53.608;9.958;2023-04-25T14:57:32;11.20;99.90
13856;DHT22;6998;53.608;9.958;2023-04-25T15:00:00;10.80;99.90
13856;DHT22;6998;53.608;9.958;2023-04-25T15:02:29;10.90;99.90
13856;DHT22;6998;53.608;9.958;2023-04-25T15:04:56;10.70;99.90
13856;DHT22;6998;53.608;9.958;2023-04-25T15:07:23;10.10;99.90
13856;DHT22;6998;53.608;9.958;2023-04-25T15:09:50;9.90;99.90
13856;DHT22;6998;53.608;9.958;2023-04-25T15:12:18;10.00;99.90
13856;DHT22;6998;53.608;9.958;2023-04-25T15:14:45;10.00;99.90
13856;DHT22;6998;53.608;9.958;2023-04-25T15:17:12;9.90;99.90
13856;DHT22;6998;53.608;9.958;2023-04-25T15:19:41;10.00;99.90
13856;DHT22;6998;53.608;9.958;2023-04-25T15:22:07;10.40;99.90
13856;DHT22;6998;53.608;9.958;2023-04-25T15:24:34;10.70;99.90
13856;DHT22;6998;53.608;9.958;2023-04-25T15:27:01;10.70;99.90
13856;DHT22;6998;53.608;9.958;2023-04-25T15:29:28;10.60;99.90
13856;DHT22;6998;53.608;9.958;2023-04-25T15:31:55;10.20;99.90
13856;DHT22;6998;53.608;9.958;2023-04-25T15:34:22;9.80;99.90
13856;DHT22;6998;53.608;9.958;2023-04-25T15:36:50;9.90;99.90
13856;DHT22;6998;53.608;9.958;2023-04-25T15:39:17;10.20;99.90
13856;DHT22;6998;53.608;9.958;2023-04-25T15:41:44;10.60;99.90
13856;DHT22;6998;53.608;9.958;2023-04-25T15:44:10;10.70;99.90
13856;DHT22;6998;53.608;9.958;2023-04-25T15:46:37;10.90;99.90
13856;DHT22;6998;53.608;9.958;2023-04-25T15:49:04;11.00;99.90
13856;DHT22;6998;53.608;9.958;2023-04-25T15:51:31;11.10;99.90
13856;DHT22;6998;53.608;9.958;2023-04-25T15:54:00;11.30;99.90
13856;DHT22;6998;53.608;9.958;2023-04-25T15:56:28;11.50;99.90
13856;DHT22;6998;53.608;9.958;2023-04-25T15:58:55;11.60;99.90
13856;DHT22;6998;53.608;9.958;2023-04-25T16:01:22;11.20;99.90
13856;DHT22;6998;53.608;9.958;2023-04-25T16:03:50;10.90;99.90
13856;DHT22;6998;53.608;9.958;2023-04-25T16:06:17;11.10;99.90
13856;DHT22;6998;53.608;9.958;2023-04-25T16:08:44;11.40;99.90
13856;DHT22;6998;53.608;9.958;2023-04-25T16:11:12;11.60;99.90